Scotland, Missouri
Current Conditions -  °F | °C
As of 9:00 PM on Sunday 21 Dec 2014 (Local Time) from KJLN Reporting Station
Overcast Overcast  
Wind Chill: 40°   Ceiling: 2500
Heat Index: 46°   Visibility: 10mi
Dew Point: 37°   Wind: 15mph
Humidity: 71%   Direction: 140°SE
Pressure: 29.8"   Gusts: NA
Location:  37.1542°N, 94.2882°W
Report Text: KJLN 220300Z AUTO 14013KT 10SM OVC025 08/03 A2980 RMK AO2 T00780028 $
Loading
Personal Weather Stations






























Interactive Weather Map New forecast layout! Learn more

10-Day Weather Forecast

Advertisements
Track Severe Weather on mobile